sensor_id;sensor_type;location;lat;lon;timestamp;P1;durP1;ratioP1;P2;durP2;ratioP2
12861;SDS011;6499;66.348;14.134;2022-10-16T00:00:37;1.90;;;1.60;;
12861;SDS011;6499;66.348;14.134;2022-10-16T00:03:04;2.63;;;1.60;;
12861;SDS011;6499;66.348;14.134;2022-10-16T00:05:31;3.80;;;1.30;;
12861;SDS011;6499;66.348;14.134;2022-10-16T00:07:57;2.03;;;1.20;;
12861;SDS011;6499;66.348;14.134;2022-10-16T00:10:25;2.47;;;1.40;;
12861;SDS011;6499;66.348;14.134;2022-10-16T00:12:52;2.17;;;1.17;;
12861;SDS011;6499;66.348;14.134;2022-10-16T00:15:18;1.97;;;1.23;;
12861;SDS011;6499;66.348;14.134;2022-10-16T00:17:45;2.03;;;1.20;;
12861;SDS011;6499;66.348;14.134;2022-10-16T00:20:11;2.10;;;1.70;;
12861;SDS011;6499;66.348;14.134;2022-10-16T00:22:38;1.60;;;1.40;;
12861;SDS011;6499;66.348;14.134;2022-10-16T00:25:05;3.27;;;1.00;;
12861;SDS011;6499;66.348;14.134;2022-10-16T00:27:33;2.13;;;1.30;;
12861;SDS011;6499;66.348;14.134;2022-10-16T00:29:59;1.40;;;1.13;;
12861;SDS011;6499;66.348;14.134;2022-10-16T00:32:26;1.60;;;1.17;;
12861;SDS011;6499;66.348;14.134;2022-10-16T00:34:52;1.20;;;1.07;;
12861;SDS011;6499;66.348;14.134;2022-10-16T00:37:19;1.57;;;1.20;;
12861;SDS011;6499;66.348;14.134;2022-10-16T00:39:48;1.63;;;1.30;;
12861;SDS011;6499;66.348;14.134;2022-10-16T00:42:15;1.43;;;1.10;;
12861;SDS011;6499;66.348;14.134;2022-10-16T00:44:46;1.53;;;1.20;;
12861;SDS011;6499;66.348;14.134;2022-10-16T00:47:15;1.83;;;1.37;;
12861;SDS011;6499;66.348;14.134;2022-10-16T00:49:42;1.57;;;1.13;;
12861;SDS011;6499;66.348;14.134;2022-10-16T00:52:08;1.60;;;1.10;;
12861;SDS011;6499;66.348;14.134;2022-10-16T00:54:36;2.27;;;1.30;;
12861;SDS011;6499;66.348;14.134;2022-10-16T00:57:03;1.90;;;1.47;;
12861;SDS011;6499;66.348;14.134;2022-10-16T00:59:31;1.30;;;1.20;;
12861;SDS011;6499;66.348;14.134;2022-10-16T01:02:00;1.47;;;1.17;;
12861;SDS011;6499;66.348;14.134;2022-10-16T01:04:26;1.90;;;1.07;;
12861;SDS011;6499;66.348;14.134;2022-10-16T01:06:55;1.47;;;1.27;;
12861;SDS011;6499;66.348;14.134;2022-10-16T01:09:25;1.77;;;1.30;;
12861;SDS011;6499;66.348;14.134;2022-10-16T01:11:55;0.97;;;0.93;;
12861;SDS011;6499;66.348;14.134;2022-10-16T01:14:26;2.03;;;1.10;;
12861;SDS011;6499;66.348;14.134;2022-10-16T01:16:55;2.43;;;1.23;;
12861;SDS011;6499;66.348;14.134;2022-10-16T01:19:31;1.93;;;1.00;;
12861;SDS011;6499;66.348;14.134;2022-10-16T01:21:58;1.30;;;1.03;;
12861;SDS011;6499;66.348;14.134;2022-10-16T01:24:27;3.00;;;1.10;;
12861;SDS011;6499;66.348;14.134;2022-10-16T01:27:09;1.10;;;1.00;;
12861;SDS011;6499;66.348;14.134;2022-10-16T01:29:36;1.90;;;1.00;;
12861;SDS011;6499;66.348;14.134;2022-10-16T01:32:06;2.10;;;1.20;;
12861;SDS011;6499;66.348;14.134;2022-10-16T01:34:37;1.50;;;1.00;;
12861;SDS011;6499;66.348;14.134;2022-10-16T01:37:05;1.73;;;0.97;;
12861;SDS011;6499;66.348;14.134;2022-10-16T01:39:34;1.10;;;1.00;;
12861;SDS011;6499;66.348;14.134;2022-10-16T01:42:03;1.70;;;1.00;;
12861;SDS011;6499;66.348;14.134;2022-10-16T01:44:33;2.10;;;1.20;;
12861;SDS011;6499;66.348;14.134;2022-10-16T01:47:01;1.43;;;1.20;;
12861;SDS011;6499;66.348;14.134;2022-10-16T01:49:29;0.80;;;0.80;;
12861;SDS011;6499;66.348;14.134;2022-10-16T01:51:58;1.70;;;1.07;;
12861;SDS011;6499;66.348;14.134;2022-10-16T01:54:25;1.37;;;1.20;;
12861;SDS011;6499;66.348;14.134;2022-10-16T01:56:53;1.10;;;1.00;;
12861;SDS011;6499;66.348;14.134;2022-10-16T01:59:20;1.20;;;1.03;;
12861;SDS011;6499;66.348;14.134;2022-10-16T02:01:50;1.00;;;0.97;;
12861;SDS011;6499;66.348;14.134;2022-10-16T02:04:18;2.87;;;1.10;;
12861;SDS011;6499;66.348;14.134;2022-10-16T02:06:46;1.20;;;0.90;;
12861;SDS011;6499;66.348;14.134;2022-10-16T02:09:13;1.97;;;1.23;;
12861;SDS011;6499;66.348;14.134;2022-10-16T02:11:42;1.90;;;1.20;;
12861;SDS011;6499;66.348;14.134;2022-10-16T02:14:08;1.30;;;1.20;;
12861;SDS011;6499;66.348;14.134;2022-10-16T02:16:35;1.37;;;0.90;;
12861;SDS011;6499;66.348;14.134;2022-10-16T02:19:04;1.43;;;1.23;;
12861;SDS011;6499;66.348;14.134;2022-10-16T02:21:32;1.03;;;0.90;;
12861;SDS011;6499;66.348;14.134;2022-10-16T02:24:05;1.27;;;1.10;;
12861;SDS011;6499;66.348;14.134;2022-10-16T02:26:35;1.77;;;1.17;;
12861;SDS011;6499;66.348;14.134;2022-10-16T02:29:02;1.70;;;0.93;;
12861;SDS011;6499;66.348;14.134;2022-10-16T02:31:31;1.47;;;1.00;;
12861;SDS011;6499;66.348;14.134;2022-10-16T02:33:59;1.37;;;1.00;;
12861;SDS011;6499;66.348;14.134;2022-10-16T02:36:27;1.77;;;1.20;;
12861;SDS011;6499;66.348;14.134;2022-10-16T02:38:54;2.60;;;1.30;;
12861;SDS011;6499;66.348;14.134;2022-10-16T02:41:21;1.33;;;1.17;;
12861;SDS011;6499;66.348;14.134;2022-10-16T02:43:48;1.90;;;1.27;;
12861;SDS011;6499;66.348;14.134;2022-10-16T02:46:15;1.87;;;1.30;;
12861;SDS011;6499;66.348;14.134;2022-10-16T02:48:43;1.37;;;1.17;;
12861;SDS011;6499;66.348;14.134;2022-10-16T02:51:09;1.20;;;1.10;;
12861;SDS011;6499;66.348;14.134;2022-10-16T02:53:42;1.20;;;1.10;;
12861;SDS011;6499;66.348;14.134;2022-10-16T02:56:09;2.33;;;1.30;;
12861;SDS011;6499;66.348;14.134;2022-10-16T03:01:09;1.50;;;1.40;;
12861;SDS011;6499;66.348;14.134;2022-10-16T03:03:37;1.30;;;1.00;;
12861;SDS011;6499;66.348;14.134;2022-10-16T03:06:04;1.53;;;1.10;;
12861;SDS011;6499;66.348;14.134;2022-10-16T03:08:31;2.43;;;1.20;;
12861;SDS011;6499;66.348;14.134;2022-10-16T03:10:59;1.20;;;1.10;;
12861;SDS011;6499;66.348;14.134;2022-10-16T03:13:25;1.60;;;1.00;;
12861;SDS011;6499;66.348;14.134;2022-10-16T03:15:52;1.53;;;1.20;;
12861;SDS011;6499;66.348;14.134;2022-10-16T03:18:18;2.33;;;1.00;;
12861;SDS011;6499;66.348;14.134;2022-10-16T03:20:48;1.47;;;1.10;;
12861;SDS011;6499;66.348;14.134;2022-10-16T03:23:15;3.53;;;1.60;;
12861;SDS011;6499;66.348;14.134;2022-10-16T03:25:49;1.43;;;1.10;;
12861;SDS011;6499;66.348;14.134;2022-10-16T03:28:17;2.10;;;1.50;;
12861;SDS011;6499;66.348;14.134;2022-10-16T03:30:44;2.00;;;1.40;;
12861;SDS011;6499;66.348;14.134;2022-10-16T03:33:10;1.67;;;1.07;;
12861;SDS011;6499;66.348;14.134;2022-10-16T03:35:37;2.00;;;1.50;;
12861;SDS011;6499;66.348;14.134;2022-10-16T03:38:03;6.40;;;1.60;;
12861;SDS011;6499;66.348;14.134;2022-10-16T03:45:41;16.90;;;1.77;;
12861;SDS011;6499;66.348;14.134;2022-10-16T03:48:08;23.93;;;2.37;;
12861;SDS011;6499;66.348;14.134;2022-10-16T03:50:34;7.00;;;1.53;;
12861;SDS011;6499;66.348;14.134;2022-10-16T03:53:01;6.47;;;1.30;;
12861;SDS011;6499;66.348;14.134;2022-10-16T03:55:27;11.50;;;1.63;;
12861;SDS011;6499;66.348;14.134;2022-10-16T03:57:54;10.10;;;1.63;;
12861;SDS011;6499;66.348;14.134;2022-10-16T04:00:21;10.33;;;1.60;;
12861;SDS011;6499;66.348;14.134;2022-10-16T04:02:48;5.37;;;1.10;;
12861;SDS011;6499;66.348;14.134;2022-10-16T04:05:15;9.03;;;1.50;;
12861;SDS011;6499;66.348;14.134;2022-10-16T04:07:42;11.53;;;1.27;;
12861;SDS011;6499;66.348;14.134;2022-10-16T04:10:08;2.73;;;1.00;;
12861;SDS011;6499;66.348;14.134;2022-10-16T04:12:35;6.93;;;1.00;;
12861;SDS011;6499;66.348;14.134;2022-10-16T04:15:02;1.00;;;0.90;;
12861;SDS011;6499;66.348;14.134;2022-10-16T04:17:28;1.00;;;0.73;;
12861;SDS011;6499;66.348;14.134;2022-10-16T04:19:56;1.07;;;0.87;;
12861;SDS011;6499;66.348;14.134;2022-10-16T04:22:23;1.87;;;0.60;;
12861;SDS011;6499;66.348;14.134;2022-10-16T04:24:49;0.60;;;0.60;;
12861;SDS011;6499;66.348;14.134;2022-10-16T04:27:16;1.80;;;0.80;;
12861;SDS011;6499;66.348;14.134;2022-10-16T04:29:42;0.83;;;0.70;;
12861;SDS011;6499;66.348;14.134;2022-10-16T04:32:09;1.00;;;0.73;;
12861;SDS011;6499;66.348;14.134;2022-10-16T04:34:35;0.70;;;0.50;;
12861;SDS011;6499;66.348;14.134;2022-10-16T04:37:04;0.83;;;0.40;;
12861;SDS011;6499;66.348;14.134;2022-10-16T04:39:31;1.57;;;0.53;;
12861;SDS011;6499;66.348;14.134;2022-10-16T04:41:57;0.90;;;0.70;;
12861;SDS011;6499;66.348;14.134;2022-10-16T04:44:24;1.00;;;0.50;;
12861;SDS011;6499;66.348;14.134;2022-10-16T04:46:51;0.40;;;0.40;;
12861;SDS011;6499;66.348;14.134;2022-10-16T04:49:17;1.47;;;0.53;;
12861;SDS011;6499;66.348;14.134;2022-10-16T04:51:44;0.50;;;0.50;;
12861;SDS011;6499;66.348;14.134;2022-10-16T04:54:12;0.97;;;0.60;;
12861;SDS011;6499;66.348;14.134;2022-10-16T04:56:38;0.50;;;0.50;;
12861;SDS011;6499;66.348;14.134;2022-10-16T04:59:11;0.60;;;0.60;;
12861;SDS011;6499;66.348;14.134;2022-10-16T05:01:38;1.00;;;0.67;;
12861;SDS011;6499;66.348;14.134;2022-10-16T05:04:05;0.93;;;0.60;;
12861;SDS011;6499;66.348;14.134;2022-10-16T05:06:31;0.40;;;0.30;;
12861;SDS011;6499;66.348;14.134;2022-10-16T05:08:58;0.40;;;0.40;;
12861;SDS011;6499;66.348;14.134;2022-10-16T05:11:26;1.03;;;0.50;;
12861;SDS011;6499;66.348;14.134;2022-10-16T05:13:52;0.77;;;0.40;;
12861;SDS011;6499;66.348;14.134;2022-10-16T05:16:19;0.57;;;0.40;;
12861;SDS011;6499;66.348;14.134;2022-10-16T05:18:45;0.70;;;0.43;;
12861;SDS011;6499;66.348;14.134;2022-10-16T05:21:12;1.27;;;0.87;;
12861;SDS011;6499;66.348;14.134;2022-10-16T05:23:38;0.90;;;0.50;;
12861;SDS011;6499;66.348;14.134;2022-10-16T05:26:05;0.80;;;0.50;;
12861;SDS011;6499;66.348;14.134;2022-10-16T05:28:33;0.40;;;0.40;;
12861;SDS011;6499;66.348;14.134;2022-10-16T05:31:03;0.73;;;0.43;;
12861;SDS011;6499;66.348;14.134;2022-10-16T05:33:30;1.50;;;0.60;;
12861;SDS011;6499;66.348;14.134;2022-10-16T05:35:56;1.70;;;0.70;;
12861;SDS011;6499;66.348;14.134;2022-10-16T05:38:23;0.60;;;0.60;;
12861;SDS011;6499;66.348;14.134;2022-10-16T05:40:52;1.50;;;0.60;;
12861;SDS011;6499;66.348;14.134;2022-10-16T05:43:19;0.63;;;0.40;;
12861;SDS011;6499;66.348;14.134;2022-10-16T05:45:54;2.10;;;0.70;;
12861;SDS011;6499;66.348;14.134;2022-10-16T05:48:21;0.40;;;0.40;;
12861;SDS011;6499;66.348;14.134;2022-10-16T05:53:18;1.30;;;0.50;;
12861;SDS011;6499;66.348;14.134;2022-10-16T05:55:52;0.40;;;0.40;;
12861;SDS011;6499;66.348;14.134;2022-10-16T05:58:19;0.50;;;0.50;;
12861;SDS011;6499;66.348;14.134;2022-10-16T06:00:53;0.60;;;0.40;;
12861;SDS011;6499;66.348;14.134;2022-10-16T06:03:20;1.37;;;0.57;;
12861;SDS011;6499;66.348;14.134;2022-10-16T06:05:46;0.80;;;0.60;;
12861;SDS011;6499;66.348;14.134;2022-10-16T06:08:13;0.90;;;0.50;;
12861;SDS011;6499;66.348;14.134;2022-10-16T06:10:39;0.43;;;0.40;;
12861;SDS011;6499;66.348;14.134;2022-10-16T06:13:06;2.03;;;0.57;;
12861;SDS011;6499;66.348;14.134;2022-10-16T06:15:32;1.20;;;0.57;;
12861;SDS011;6499;66.348;14.134;2022-10-16T06:18:00;0.67;;;0.57;;
12861;SDS011;6499;66.348;14.134;2022-10-16T06:20:27;1.67;;;0.50;;
12861;SDS011;6499;66.348;14.134;2022-10-16T06:22:53;0.50;;;0.50;;
12861;SDS011;6499;66.348;14.134;2022-10-16T06:25:20;0.53;;;0.50;;
12861;SDS011;6499;66.348;14.134;2022-10-16T06:27:47;1.60;;;0.60;;
12861;SDS011;6499;66.348;14.134;2022-10-16T06:30:13;1.17;;;0.60;;
12861;SDS011;6499;66.348;14.134;2022-10-16T06:32:40;1.60;;;0.73;;
12861;SDS011;6499;66.348;14.134;2022-10-16T06:35:08;0.43;;;0.43;;
12861;SDS011;6499;66.348;14.134;2022-10-16T06:37:34;1.10;;;0.63;;
12861;SDS011;6499;66.348;14.134;2022-10-16T06:40:01;2.13;;;0.67;;
12861;SDS011;6499;66.348;14.134;2022-10-16T06:42:29;0.83;;;0.60;;
12861;SDS011;6499;66.348;14.134;2022-10-16T06:44:56;1.47;;;0.50;;
12861;SDS011;6499;66.348;14.134;2022-10-16T06:47:22;0.90;;;0.50;;
12861;SDS011;6499;66.348;14.134;2022-10-16T06:49:49;0.50;;;0.50;;
12861;SDS011;6499;66.348;14.134;2022-10-16T06:52:17;1.40;;;0.50;;
12861;SDS011;6499;66.348;14.134;2022-10-16T06:54:43;2.10;;;0.60;;
12861;SDS011;6499;66.348;14.134;2022-10-16T06:57:10;1.17;;;0.80;;
12861;SDS011;6499;66.348;14.134;2022-10-16T06:59:36;0.60;;;0.60;;
12861;SDS011;6499;66.348;14.134;2022-10-16T07:02:03;4.23;;;0.83;;
12861;SDS011;6499;66.348;14.134;2022-10-16T07:04:29;0.97;;;0.67;;
12861;SDS011;6499;66.348;14.134;2022-10-16T07:06:56;1.30;;;0.80;;
12861;SDS011;6499;66.348;14.134;2022-10-16T07:09:24;0.47;;;0.43;;
12861;SDS011;6499;66.348;14.134;2022-10-16T07:11:50;1.87;;;0.87;;
12861;SDS011;6499;66.348;14.134;2022-10-16T07:14:18;0.90;;;0.53;;
12861;SDS011;6499;66.348;14.134;2022-10-16T07:16:45;0.70;;;0.50;;
12861;SDS011;6499;66.348;14.134;2022-10-16T07:19:11;1.20;;;0.50;;
12861;SDS011;6499;66.348;14.134;2022-10-16T07:21:40;0.80;;;0.70;;
12861;SDS011;6499;66.348;14.134;2022-10-16T07:24:09;0.87;;;0.70;;
12861;SDS011;6499;66.348;14.134;2022-10-16T07:26:39;1.20;;;0.60;;
12861;SDS011;6499;66.348;14.134;2022-10-16T07:29:06;0.70;;;0.50;;
12861;SDS011;6499;66.348;14.134;2022-10-16T07:31:33;1.20;;;0.70;;
12861;SDS011;6499;66.348;14.134;2022-10-16T07:34:00;1.20;;;0.50;;
12861;SDS011;6499;66.348;14.134;2022-10-16T07:36:26;1.70;;;0.60;;
12861;SDS011;6499;66.348;14.134;2022-10-16T07:38:53;0.67;;;0.53;;
12861;SDS011;6499;66.348;14.134;2022-10-16T07:41:19;0.67;;;0.63;;
12861;SDS011;6499;66.348;14.134;2022-10-16T07:43:48;0.63;;;0.50;;
12861;SDS011;6499;66.348;14.134;2022-10-16T07:46:15;1.20;;;0.70;;
12861;SDS011;6499;66.348;14.134;2022-10-16T07:48:42;1.47;;;0.60;;
12861;SDS011;6499;66.348;14.134;2022-10-16T07:51:12;2.37;;;1.50;;
12861;SDS011;6499;66.348;14.134;2022-10-16T07:53:39;2.77;;;1.53;;
12861;SDS011;6499;66.348;14.134;2022-10-16T07:56:06;1.60;;;1.50;;
12861;SDS011;6499;66.348;14.134;2022-10-16T07:58:33;2.10;;;1.10;;
12861;SDS011;6499;66.348;14.134;2022-10-16T08:01:04;0.70;;;0.70;;
12861;SDS011;6499;66.348;14.134;2022-10-16T08:03:31;1.13;;;0.87;;
12861;SDS011;6499;66.348;14.134;2022-10-16T08:05:58;2.10;;;0.90;;
12861;SDS011;6499;66.348;14.134;2022-10-16T08:08:24;1.50;;;0.83;;
12861;SDS011;6499;66.348;14.134;2022-10-16T08:10:51;0.97;;;0.70;;
12861;SDS011;6499;66.348;14.134;2022-10-16T08:13:18;0.70;;;0.63;;
12861;SDS011;6499;66.348;14.134;2022-10-16T08:15:44;1.37;;;0.63;;
12861;SDS011;6499;66.348;14.134;2022-10-16T08:18:13;1.10;;;1.00;;
12861;SDS011;6499;66.348;14.134;2022-10-16T08:20:40;1.20;;;1.10;;
12861;SDS011;6499;66.348;14.134;2022-10-16T08:25:40;0.50;;;0.50;;
12861;SDS011;6499;66.348;14.134;2022-10-16T08:28:07;0.80;;;0.63;;
12861;SDS011;6499;66.348;14.134;2022-10-16T08:30:34;2.87;;;1.60;;
12861;SDS011;6499;66.348;14.134;2022-10-16T08:33:01;1.20;;;1.10;;
12861;SDS011;6499;66.348;14.134;2022-10-16T08:35:29;1.47;;;0.80;;
12861;SDS011;6499;66.348;14.134;2022-10-16T08:37:56;1.70;;;0.80;;
12861;SDS011;6499;66.348;14.134;2022-10-16T08:40:23;1.43;;;0.70;;
12861;SDS011;6499;66.348;14.134;2022-10-16T08:42:56;2.13;;;0.70;;
12861;SDS011;6499;66.348;14.134;2022-10-16T08:45:31;1.97;;;1.00;;
12861;SDS011;6499;66.348;14.134;2022-10-16T08:48:04;1.57;;;0.80;;
12861;SDS011;6499;66.348;14.134;2022-10-16T08:50:37;1.90;;;0.93;;
12861;SDS011;6499;66.348;14.134;2022-10-16T08:53:05;1.40;;;1.20;;
12861;SDS011;6499;66.348;14.134;2022-10-16T08:55:33;2.90;;;1.77;;
12861;SDS011;6499;66.348;14.134;2022-10-16T08:58:01;1.87;;;1.57;;
12861;SDS011;6499;66.348;14.134;2022-10-16T09:00:27;2.37;;;1.23;;
12861;SDS011;6499;66.348;14.134;2022-10-16T09:02:56;1.43;;;1.33;;
12861;SDS011;6499;66.348;14.134;2022-10-16T09:08:11;2.07;;;1.20;;
12861;SDS011;6499;66.348;14.134;2022-10-16T09:10:43;1.67;;;1.57;;
12861;SDS011;6499;66.348;14.134;2022-10-16T09:13:17;2.13;;;1.60;;
12861;SDS011;6499;66.348;14.134;2022-10-16T09:15:46;3.17;;;1.90;;
12861;SDS011;6499;66.348;14.134;2022-10-16T09:18:15;1.70;;;1.07;;
12861;SDS011;6499;66.348;14.134;2022-10-16T09:20:46;1.30;;;1.20;;
12861;SDS011;6499;66.348;14.134;2022-10-16T09:23:17;2.67;;;1.10;;
12861;SDS011;6499;66.348;14.134;2022-10-16T09:25:45;3.23;;;1.23;;
12861;SDS011;6499;66.348;14.134;2022-10-16T09:28:12;1.43;;;0.73;;
12861;SDS011;6499;66.348;14.134;2022-10-16T09:30:39;3.57;;;1.10;;
12861;SDS011;6499;66.348;14.134;2022-10-16T09:33:06;1.17;;;0.90;;
12861;SDS011;6499;66.348;14.134;2022-10-16T09:35:35;1.83;;;0.80;;
12861;SDS011;6499;66.348;14.134;2022-10-16T09:38:02;0.70;;;0.70;;
12861;SDS011;6499;66.348;14.134;2022-10-16T09:40:30;1.50;;;1.00;;
12861;SDS011;6499;66.348;14.134;2022-10-16T09:42:57;2.97;;;0.80;;
12861;SDS011;6499;66.348;14.134;2022-10-16T09:45:27;1.07;;;0.80;;
12861;SDS011;6499;66.348;14.134;2022-10-16T09:47:54;1.20;;;0.70;;
12861;SDS011;6499;66.348;14.134;2022-10-16T09:50:22;1.37;;;0.80;;
12861;SDS011;6499;66.348;14.134;2022-10-16T09:52:49;0.50;;;0.50;;
12861;SDS011;6499;66.348;14.134;2022-10-16T09:55:16;0.83;;;0.70;;
12861;SDS011;6499;66.348;14.134;2022-10-16T09:57:49;1.83;;;0.80;;
12861;SDS011;6499;66.348;14.134;2022-10-16T10:00:16;1.17;;;0.77;;
12861;SDS011;6499;66.348;14.134;2022-10-16T10:02:43;1.10;;;0.80;;
12861;SDS011;6499;66.348;14.134;2022-10-16T10:05:17;1.70;;;1.00;;
12861;SDS011;6499;66.348;14.134;2022-10-16T10:07:45;0.73;;;0.73;;
12861;SDS011;6499;66.348;14.134;2022-10-16T10:10:18;1.13;;;0.70;;
12861;SDS011;6499;66.348;14.134;2022-10-16T10:12:45;0.67;;;0.63;;
12861;SDS011;6499;66.348;14.134;2022-10-16T10:15:14;1.23;;;0.80;;
12861;SDS011;6499;66.348;14.134;2022-10-16T10:17:47;0.53;;;0.53;;
12861;SDS011;6499;66.348;14.134;2022-10-16T10:20:24;0.80;;;0.50;;
12861;SDS011;6499;66.348;14.134;2022-10-16T10:22:52;0.63;;;0.63;;
12861;SDS011;6499;66.348;14.134;2022-10-16T10:25:38;0.80;;;0.50;;
12861;SDS011;6499;66.348;14.134;2022-10-16T10:28:19;0.60;;;0.50;;
12861;SDS011;6499;66.348;14.134;2022-10-16T10:30:51;0.70;;;0.40;;
12861;SDS011;6499;66.348;14.134;2022-10-16T10:33:22;1.07;;;0.50;;
12861;SDS011;6499;66.348;14.134;2022-10-16T10:35:53;1.70;;;0.40;;
12861;SDS011;6499;66.348;14.134;2022-10-16T10:38:34;0.80;;;0.50;;
12861;SDS011;6499;66.348;14.134;2022-10-16T10:43:48;1.47;;;0.50;;
12861;SDS011;6499;66.348;14.134;2022-10-16T10:46:23;0.43;;;0.40;;
12861;SDS011;6499;66.348;14.134;2022-10-16T10:48:59;1.37;;;0.60;;
12861;SDS011;6499;66.348;14.134;2022-10-16T10:51:29;0.83;;;0.40;;
12861;SDS011;6499;66.348;14.134;2022-10-16T10:54:00;0.50;;;0.40;;
12861;SDS011;6499;66.348;14.134;2022-10-16T10:56:39;1.30;;;0.50;;
12861;SDS011;6499;66.348;14.134;2022-10-16T10:59:20;0.60;;;0.50;;
12861;SDS011;6499;66.348;14.134;2022-10-16T11:01:54;0.60;;;0.50;;
12861;SDS011;6499;66.348;14.134;2022-10-16T11:04:32;0.57;;;0.50;;
12861;SDS011;6499;66.348;14.134;2022-10-16T11:07:00;0.80;;;0.50;;
12861;SDS011;6499;66.348;14.134;2022-10-16T11:09:30;1.47;;;0.40;;
12861;SDS011;6499;66.348;14.134;2022-10-16T11:11:59;0.87;;;0.50;;
12861;SDS011;6499;66.348;14.134;2022-10-16T11:14:28;0.73;;;0.50;;
12861;SDS011;6499;66.348;14.134;2022-10-16T11:16:58;1.43;;;0.60;;
12861;SDS011;6499;66.348;14.134;2022-10-16T11:19:28;1.20;;;0.40;;
12861;SDS011;6499;66.348;14.134;2022-10-16T11:22:00;1.37;;;0.40;;
12861;SDS011;6499;66.348;14.134;2022-10-16T11:24:31;0.67;;;0.40;;
12861;SDS011;6499;66.348;14.134;2022-10-16T11:27:01;1.03;;;0.40;;
12861;SDS011;6499;66.348;14.134;2022-10-16T11:29:30;0.63;;;0.50;;
12861;SDS011;6499;66.348;14.134;2022-10-16T11:32:00;1.13;;;0.40;;
12861;SDS011;6499;66.348;14.134;2022-10-16T11:34:31;0.87;;;0.50;;
12861;SDS011;6499;66.348;14.134;2022-10-16T11:37:02;1.87;;;0.70;;
12861;SDS011;6499;66.348;14.134;2022-10-16T11:39:32;0.80;;;0.40;;
12861;SDS011;6499;66.348;14.134;2022-10-16T11:41:59;0.40;;;0.40;;
12861;SDS011;6499;66.348;14.134;2022-10-16T11:44:38;1.27;;;0.70;;
12861;SDS011;6499;66.348;14.134;2022-10-16T11:47:12;2.00;;;0.80;;
12861;SDS011;6499;66.348;14.134;2022-10-16T11:49:41;0.30;;;0.30;;
12861;SDS011;6499;66.348;14.134;2022-10-16T11:52:11;1.07;;;0.60;;
12861;SDS011;6499;66.348;14.134;2022-10-16T11:54:41;1.80;;;0.90;;
12861;SDS011;6499;66.348;14.134;2022-10-16T11:57:12;4.63;;;2.70;;
12861;SDS011;6499;66.348;14.134;2022-10-16T11:59:41;2.47;;;1.43;;
12861;SDS011;6499;66.348;14.134;2022-10-16T12:02:20;2.30;;;1.50;;
12861;SDS011;6499;66.348;14.134;2022-10-16T12:04:50;5.60;;;2.30;;
12861;SDS011;6499;66.348;14.134;2022-10-16T12:07:21;3.00;;;1.80;;
12861;SDS011;6499;66.348;14.134;2022-10-16T12:09:49;3.37;;;1.80;;
12861;SDS011;6499;66.348;14.134;2022-10-16T12:12:23;3.23;;;1.80;;
12861;SDS011;6499;66.348;14.134;2022-10-16T12:14:59;3.80;;;2.23;;
12861;SDS011;6499;66.348;14.134;2022-10-16T12:17:27;3.97;;;2.50;;
12861;SDS011;6499;66.348;14.134;2022-10-16T12:20:01;5.77;;;2.50;;
12861;SDS011;6499;66.348;14.134;2022-10-16T12:22:41;3.27;;;2.30;;
12861;SDS011;6499;66.348;14.134;2022-10-16T12:25:17;3.93;;;2.40;;
12861;SDS011;6499;66.348;14.134;2022-10-16T12:27:45;4.23;;;2.50;;
12861;SDS011;6499;66.348;14.134;2022-10-16T12:30:20;4.33;;;2.80;;
12861;SDS011;6499;66.348;14.134;2022-10-16T12:35:25;3.20;;;2.20;;
12861;SDS011;6499;66.348;14.134;2022-10-16T12:37:52;2.43;;;1.80;;
12861;SDS011;6499;66.348;14.134;2022-10-16T12:40:26;4.03;;;1.70;;
12861;SDS011;6499;66.348;14.134;2022-10-16T12:42:53;3.83;;;2.03;;
12861;SDS011;6499;66.348;14.134;2022-10-16T12:45:23;3.77;;;2.00;;
12861;SDS011;6499;66.348;14.134;2022-10-16T12:47:51;2.90;;;1.70;;
12861;SDS011;6499;66.348;14.134;2022-10-16T12:53:18;3.97;;;2.27;;
12861;SDS011;6499;66.348;14.134;2022-10-16T12:55:48;2.07;;;1.63;;
12861;SDS011;6499;66.348;14.134;2022-10-16T12:58:24;3.43;;;1.90;;
12861;SDS011;6499;66.348;14.134;2022-10-16T13:00:56;3.00;;;1.90;;
12861;SDS011;6499;66.348;14.134;2022-10-16T13:06:07;3.67;;;2.33;;
12861;SDS011;6499;66.348;14.134;2022-10-16T13:08:41;5.47;;;2.97;;
12861;SDS011;6499;66.348;14.134;2022-10-16T13:11:11;3.07;;;1.97;;
12861;SDS011;6499;66.348;14.134;2022-10-16T13:13:46;2.63;;;1.70;;
12861;SDS011;6499;66.348;14.134;2022-10-16T13:16:17;3.07;;;2.00;;
12861;SDS011;6499;66.348;14.134;2022-10-16T13:18:49;5.20;;;2.43;;
12861;SDS011;6499;66.348;14.134;2022-10-16T13:21:22;3.57;;;2.33;;
12861;SDS011;6499;66.348;14.134;2022-10-16T13:23:54;4.90;;;2.50;;
12861;SDS011;6499;66.348;14.134;2022-10-16T13:26:26;6.27;;;2.90;;
12861;SDS011;6499;66.348;14.134;2022-10-16T13:28:58;4.13;;;2.80;;
12861;SDS011;6499;66.348;14.134;2022-10-16T13:31:25;3.13;;;1.73;;
12861;SDS011;6499;66.348;14.134;2022-10-16T13:33:52;2.87;;;1.67;;
12861;SDS011;6499;66.348;14.134;2022-10-16T13:36:21;2.60;;;1.73;;
12861;SDS011;6499;66.348;14.134;2022-10-16T13:38:48;2.40;;;1.37;;
12861;SDS011;6499;66.348;14.134;2022-10-16T13:41:17;2.90;;;1.40;;
12861;SDS011;6499;66.348;14.134;2022-10-16T13:43:45;2.17;;;1.67;;
12861;SDS011;6499;66.348;14.134;2022-10-16T13:46:13;2.60;;;1.90;;
12861;SDS011;6499;66.348;14.134;2022-10-16T13:48:40;4.03;;;2.50;;
12861;SDS011;6499;66.348;14.134;2022-10-16T13:51:11;2.03;;;1.60;;
12861;SDS011;6499;66.348;14.134;2022-10-16T13:53:38;2.27;;;1.50;;
12861;SDS011;6499;66.348;14.134;2022-10-16T13:56:06;1.97;;;1.50;;
12861;SDS011;6499;66.348;14.134;2022-10-16T13:58:34;2.77;;;1.60;;
12861;SDS011;6499;66.348;14.134;2022-10-16T14:01:02;2.53;;;1.83;;
12861;SDS011;6499;66.348;14.134;2022-10-16T14:03:30;2.40;;;1.50;;
12861;SDS011;6499;66.348;14.134;2022-10-16T14:05:58;1.97;;;1.70;;
12861;SDS011;6499;66.348;14.134;2022-10-16T14:08:25;2.73;;;1.67;;
12861;SDS011;6499;66.348;14.134;2022-10-16T14:10:53;3.70;;;1.90;;
12861;SDS011;6499;66.348;14.134;2022-10-16T14:13:23;2.60;;;1.50;;
12861;SDS011;6499;66.348;14.134;2022-10-16T14:15:53;3.37;;;1.60;;
12861;SDS011;6499;66.348;14.134;2022-10-16T14:18:23;2.60;;;1.50;;
12861;SDS011;6499;66.348;14.134;2022-10-16T14:20:50;4.40;;;1.60;;
12861;SDS011;6499;66.348;14.134;2022-10-16T14:23:21;3.73;;;1.60;;
12861;SDS011;6499;66.348;14.134;2022-10-16T14:25:48;2.53;;;1.60;;
12861;SDS011;6499;66.348;14.134;2022-10-16T14:28:15;2.37;;;1.53;;
12861;SDS011;6499;66.348;14.134;2022-10-16T14:30:48;2.60;;;1.60;;
12861;SDS011;6499;66.348;14.134;2022-10-16T14:33:22;2.73;;;1.63;;
12861;SDS011;6499;66.348;14.134;2022-10-16T14:35:59;4.07;;;2.00;;
12861;SDS011;6499;66.348;14.134;2022-10-16T14:38:26;2.53;;;1.50;;
12861;SDS011;6499;66.348;14.134;2022-10-16T14:40:52;2.43;;;1.57;;
12861;SDS011;6499;66.348;14.134;2022-10-16T14:43:20;1.90;;;1.10;;
12861;SDS011;6499;66.348;14.134;2022-10-16T14:45:49;2.77;;;1.40;;
12861;SDS011;6499;66.348;14.134;2022-10-16T14:48:17;2.33;;;1.47;;
12861;SDS011;6499;66.348;14.134;2022-10-16T14:50:46;3.37;;;1.67;;
12861;SDS011;6499;66.348;14.134;2022-10-16T14:53:13;2.80;;;1.50;;
12861;SDS011;6499;66.348;14.134;2022-10-16T14:55:39;1.93;;;1.20;;
12861;SDS011;6499;66.348;14.134;2022-10-16T14:58:08;2.13;;;1.33;;
12861;SDS011;6499;66.348;14.134;2022-10-16T15:00:36;3.07;;;1.57;;
12861;SDS011;6499;66.348;14.134;2022-10-16T15:03:03;2.90;;;1.70;;
12861;SDS011;6499;66.348;14.134;2022-10-16T15:05:29;3.73;;;1.90;;
12861;SDS011;6499;66.348;14.134;2022-10-16T15:07:58;2.60;;;2.10;;
12861;SDS011;6499;66.348;14.134;2022-10-16T15:10:25;2.37;;;1.60;;
12861;SDS011;6499;66.348;14.134;2022-10-16T15:12:53;2.13;;;1.73;;
12861;SDS011;6499;66.348;14.134;2022-10-16T15:15:28;2.27;;;1.33;;
12861;SDS011;6499;66.348;14.134;2022-10-16T15:17:56;3.73;;;1.77;;
12861;SDS011;6499;66.348;14.134;2022-10-16T15:20:25;3.10;;;1.50;;
12861;SDS011;6499;66.348;14.134;2022-10-16T15:22:52;2.30;;;1.30;;